createdAt,value
2023-03-19T00:00:35.507Z,11.50
2023-03-19T00:03:03.750Z,11.48
2023-03-19T00:05:31.890Z,11.47
2023-03-19T00:08:00.370Z,11.43
2023-03-19T00:10:28.266Z,11.41
2023-03-19T00:12:56.702Z,11.40
2023-03-19T00:15:24.873Z,11.40
2023-03-19T00:17:54.405Z,11.43
2023-03-19T00:20:22.289Z,11.43
2023-03-19T00:22:50.126Z,11.41
2023-03-19T00:25:18.603Z,11.39
2023-03-19T00:27:46.511Z,11.40
2023-03-19T00:30:15.086Z,11.37
2023-03-19T00:32:43.475Z,11.37
2023-03-19T00:35:13.268Z,11.36
2023-03-19T00:37:42.132Z,11.38
2023-03-19T00:40:11.862Z,11.38
2023-03-19T00:42:39.776Z,11.42
2023-03-19T00:45:09.067Z,11.46
2023-03-19T00:47:37.229Z,11.47
2023-03-19T00:50:06.586Z,11.45
2023-03-19T00:52:35.981Z,11.43
2023-03-19T00:55:03.966Z,11.48
2023-03-19T00:57:31.708Z,11.49
2023-03-19T00:59:59.519Z,11.42
2023-03-19T01:02:27.685Z,11.39
2023-03-19T01:04:55.531Z,11.31
2023-03-19T01:07:23.309Z,11.25
2023-03-19T01:09:52.765Z,11.18
2023-03-19T01:12:20.606Z,11.14
2023-03-19T01:14:48.527Z,11.11
2023-03-19T01:17:16.331Z,11.09
2023-03-19T01:19:44.218Z,11.05
2023-03-19T01:22:13.067Z,11.02
2023-03-19T01:24:40.855Z,11.00
2023-03-19T01:27:10.218Z,10.97
2023-03-19T01:29:38.458Z,10.93
2023-03-19T01:32:06.430Z,10.92
2023-03-19T01:34:34.291Z,10.91
2023-03-19T01:37:02.044Z,10.92
2023-03-19T01:39:29.926Z,10.95
2023-03-19T01:42:02.482Z,10.98
2023-03-19T01:44:33.341Z,11.02
2023-03-19T01:47:03.510Z,11.10
2023-03-19T01:49:32.002Z,11.11
2023-03-19T01:52:00.934Z,11.13
2023-03-19T01:54:29.546Z,11.15
2023-03-19T01:57:00.611Z,11.19
2023-03-19T01:59:32.260Z,11.22
2023-03-19T02:02:03.599Z,11.24
2023-03-19T02:04:32.831Z,11.25
2023-03-19T02:07:02.389Z,11.22
2023-03-19T02:09:30.582Z,11.18
2023-03-19T02:11:58.486Z,11.14
2023-03-19T02:14:26.694Z,11.07
2023-03-19T02:16:56.203Z,10.98
2023-03-19T02:19:27.666Z,10.94
2023-03-19T02:21:57.671Z,10.90
2023-03-19T02:24:28.469Z,10.85
2023-03-19T02:26:58.710Z,10.79
2023-03-19T02:29:26.883Z,10.77
2023-03-19T02:31:54.638Z,10.76
2023-03-19T02:34:38.781Z,10.79
2023-03-19T02:37:12.641Z,10.81
2023-03-19T02:39:45.410Z,10.81
2023-03-19T02:42:14.917Z,10.85
2023-03-19T02:44:42.767Z,10.83
2023-03-19T02:47:10.789Z,10.85
2023-03-19T02:49:38.633Z,10.76
2023-03-19T02:52:06.710Z,10.84
2023-03-19T02:54:34.509Z,10.84
2023-03-19T02:57:02.886Z,10.83
2023-03-19T02:59:32.156Z,10.87
2023-03-19T03:02:00.716Z,10.84
2023-03-19T03:04:29.251Z,10.84
2023-03-19T03:06:57.774Z,10.85
2023-03-19T03:09:25.925Z,10.83
2023-03-19T03:11:54.011Z,10.82
2023-03-19T03:14:22.133Z,10.81
2023-03-19T03:16:51.506Z,10.78
2023-03-19T03:19:19.556Z,10.70
2023-03-19T03:21:47.321Z,10.72
2023-03-19T03:24:15.337Z,10.69
2023-03-19T03:26:44.197Z,10.63
2023-03-19T03:29:12.097Z,10.59
2023-03-19T03:31:39.920Z,10.57
2023-03-19T03:34:09.175Z,10.53
2023-03-19T03:36:37.012Z,10.49
2023-03-19T03:39:05.237Z,10.46
2023-03-19T03:41:33.200Z,10.42
2023-03-19T03:44:01.264Z,10.38
2023-03-19T03:46:29.128Z,10.33
2023-03-19T03:48:56.960Z,10.29
2023-03-19T03:51:26.151Z,10.19
2023-03-19T03:53:53.942Z,10.09
2023-03-19T03:56:21.915Z,10.01
2023-03-19T03:58:49.812Z,9.89
2023-03-19T04:01:18.588Z,9.83
2023-03-19T04:03:46.586Z,9.77
2023-03-19T04:06:16.397Z,9.70
2023-03-19T04:08:46.037Z,9.65
2023-03-19T04:11:13.878Z,9.64
2023-03-19T04:13:42.308Z,9.62
2023-03-19T04:16:11.568Z,9.52
2023-03-19T04:18:39.830Z,9.46
2023-03-19T04:21:08.978Z,9.38
2023-03-19T04:23:36.791Z,9.31
2023-03-19T04:26:07.545Z,9.27
2023-03-19T04:28:35.482Z,9.20
2023-03-19T04:31:04.644Z,9.16
2023-03-19T04:33:33.021Z,9.11
2023-03-19T04:36:01.449Z,9.06
2023-03-19T04:38:29.304Z,8.98
2023-03-19T04:40:57.680Z,8.93
2023-03-19T04:43:27.393Z,9.00
2023-03-19T04:45:55.860Z,8.95
2023-03-19T04:48:23.813Z,8.98
2023-03-19T04:50:53.340Z,9.00
2023-03-19T04:53:21.435Z,9.04
2023-03-19T04:55:49.251Z,9.08
2023-03-19T04:58:17.056Z,9.08
2023-03-19T05:00:47.620Z,9.05
2023-03-19T05:03:15.434Z,9.03
2023-03-19T05:05:43.615Z,9.01
2023-03-19T05:08:11.645Z,9.00
2023-03-19T05:10:39.471Z,9.00
2023-03-19T05:13:07.932Z,8.99
2023-03-19T05:15:35.860Z,8.96
2023-03-19T05:18:05.112Z,8.94
2023-03-19T05:20:33.188Z,8.93
2023-03-19T05:23:01.274Z,8.90
2023-03-19T05:25:30.185Z,8.89
2023-03-19T05:27:58.036Z,8.85
2023-03-19T05:30:27.263Z,8.82
2023-03-19T05:32:57.335Z,8.79
2023-03-19T05:35:26.889Z,8.74
2023-03-19T05:37:54.918Z,8.70
2023-03-19T05:40:23.328Z,8.70
2023-03-19T05:42:51.191Z,8.66
2023-03-19T05:45:19.577Z,8.63
2023-03-19T05:47:50.092Z,8.61
2023-03-19T05:50:18.442Z,8.53
2023-03-19T05:52:47.646Z,8.53
2023-03-19T05:55:15.536Z,8.46
2023-03-19T05:57:43.323Z,8.19
2023-03-19T06:00:12.583Z,8.42
2023-03-19T06:02:40.735Z,8.33
2023-03-19T06:05:09.607Z,8.39
2023-03-19T06:07:37.955Z,8.40
2023-03-19T06:10:08.442Z,8.41
2023-03-19T06:12:36.244Z,8.39
2023-03-19T06:15:04.622Z,8.39
2023-03-19T06:17:32.430Z,8.41
2023-03-19T06:20:00.281Z,8.42
2023-03-19T06:22:28.125Z,8.48
2023-03-19T06:24:55.945Z,8.49
2023-03-19T06:27:25.134Z,8.54
2023-03-19T06:29:52.922Z,8.53
2023-03-19T06:32:20.725Z,8.58
2023-03-19T06:34:48.547Z,8.56
2023-03-19T06:37:17.031Z,8.60
2023-03-19T06:39:44.858Z,8.60
2023-03-19T06:42:13.313Z,8.61
2023-03-19T06:44:42.511Z,8.57
2023-03-19T06:47:10.431Z,8.58
2023-03-19T06:49:38.210Z,8.56
2023-03-19T06:52:06.326Z,8.59
2023-03-19T06:54:34.746Z,8.62
2023-03-19T06:57:03.580Z,8.69
2023-03-19T06:59:31.399Z,8.74
2023-03-19T07:02:00.615Z,8.77
2023-03-19T07:04:28.426Z,8.82
2023-03-19T07:06:56.270Z,8.87
2023-03-19T07:09:24.546Z,8.92
2023-03-19T07:11:52.389Z,8.96
2023-03-19T07:14:20.179Z,8.97
2023-03-19T07:16:48.036Z,8.99
2023-03-19T07:19:17.344Z,8.98
2023-03-19T07:21:45.355Z,8.97
2023-03-19T07:24:13.175Z,8.97
2023-03-19T07:26:42.359Z,8.91
2023-03-19T07:29:10.297Z,8.83
2023-03-19T07:31:38.155Z,8.80
2023-03-19T07:34:06.053Z,8.78
2023-03-19T07:36:35.284Z,8.83
2023-03-19T07:39:03.817Z,8.86
2023-03-19T07:41:31.863Z,8.89
2023-03-19T07:44:01.121Z,8.81
2023-03-19T07:46:29.019Z,8.79
2023-03-19T07:48:56.821Z,8.84
2023-03-19T07:51:24.659Z,8.88
2023-03-19T07:53:53.805Z,8.89
2023-03-19T07:56:21.639Z,8.92
2023-03-19T07:58:49.474Z,8.91
2023-03-19T08:01:17.308Z,8.99
2023-03-19T08:03:45.208Z,9.02
2023-03-19T08:06:13.016Z,9.04
2023-03-19T08:08:41.085Z,9.06
2023-03-19T08:11:10.441Z,9.07
2023-03-19T08:13:38.343Z,9.14
2023-03-19T08:16:07.039Z,9.17
2023-03-19T08:18:34.943Z,9.19
2023-03-19T08:21:02.751Z,9.23
2023-03-19T08:23:30.565Z,9.25
2023-03-19T08:25:58.414Z,9.34
2023-03-19T08:28:27.659Z,9.42
2023-03-19T08:30:56.787Z,9.51
2023-03-19T08:33:24.866Z,9.58
2023-03-19T08:35:52.960Z,9.63
2023-03-19T08:38:21.212Z,9.68
2023-03-19T08:40:49.156Z,9.78
2023-03-19T08:43:17.006Z,9.84
2023-03-19T08:45:46.164Z,9.91
2023-03-19T08:48:13.983Z,9.93
2023-03-19T08:50:41.851Z,9.95
2023-03-19T08:53:09.669Z,10.00
2023-03-19T08:55:37.614Z,10.06
2023-03-19T08:58:05.523Z,10.05
2023-03-19T09:00:33.585Z,10.05
2023-03-19T09:03:02.895Z,10.02
2023-03-19T09:05:30.685Z,10.10
2023-03-19T09:07:58.491Z,10.17
2023-03-19T09:10:26.599Z,10.25
2023-03-19T09:12:54.446Z,10.29
2023-03-19T09:15:22.240Z,10.35
2023-03-19T09:17:50.054Z,10.48
2023-03-19T09:20:19.562Z,10.44
2023-03-19T09:22:47.387Z,10.56
2023-03-19T09:25:15.276Z,10.56
2023-03-19T09:27:43.080Z,10.66
2023-03-19T09:30:12.484Z,10.62
2023-03-19T09:32:40.855Z,10.79
2023-03-19T09:35:09.730Z,10.92
2023-03-19T09:37:38.961Z,10.96
2023-03-19T09:40:08.216Z,11.01
2023-03-19T09:42:51.360Z,10.97
2023-03-19T09:45:20.442Z,10.98
2023-03-19T09:47:51.579Z,10.97
2023-03-19T09:50:21.810Z,10.96
2023-03-19T09:52:54.509Z,11.00
2023-03-19T09:55:33.772Z,11.06
2023-03-19T09:58:02.716Z,11.08
2023-03-19T10:00:34.004Z,11.06
2023-03-19T10:03:05.490Z,11.10
2023-03-19T10:05:43.651Z,11.14
2023-03-19T10:08:32.860Z,11.11
2023-03-19T10:11:19.246Z,11.24
2023-03-19T10:13:55.646Z,11.37
2023-03-19T10:16:26.265Z,11.42
2023-03-19T10:18:57.578Z,11.39
2023-03-19T10:21:30.076Z,11.44
2023-03-19T10:24:03.488Z,11.45
2023-03-19T10:26:35.406Z,11.33
2023-03-19T10:29:08.257Z,11.41
2023-03-19T10:31:44.918Z,11.57
2023-03-19T10:34:24.513Z,11.74
2023-03-19T10:37:00.205Z,11.70
2023-03-19T10:39:29.845Z,11.77
2023-03-19T10:42:05.074Z,11.95
2023-03-19T10:44:36.437Z,12.07
2023-03-19T10:47:11.902Z,12.04
2023-03-19T10:49:39.789Z,11.94
2023-03-19T10:52:11.146Z,11.94
2023-03-19T10:54:41.491Z,11.67
2023-03-19T10:57:22.921Z,11.39
2023-03-19T10:59:50.743Z,11.31
2023-03-19T11:02:20.007Z,11.10
2023-03-19T11:04:47.966Z,10.90
2023-03-19T11:07:19.785Z,10.80
2023-03-19T11:09:50.174Z,10.68
2023-03-19T11:12:21.150Z,10.68
2023-03-19T11:14:50.102Z,10.70
2023-03-19T11:17:22.562Z,10.69
2023-03-19T11:19:53.509Z,10.60
2023-03-19T11:22:26.105Z,10.78
2023-03-19T11:24:56.653Z,10.98
2023-03-19T11:27:29.814Z,11.21
2023-03-19T11:29:57.895Z,11.36
2023-03-19T11:33:02.436Z,11.50
2023-03-19T11:35:33.289Z,11.49
2023-03-19T11:38:03.014Z,11.44
2023-03-19T11:40:37.483Z,11.45
2023-03-19T11:43:36.804Z,11.40
2023-03-19T11:46:11.428Z,11.18
2023-03-19T11:48:49.954Z,11.12
2023-03-19T11:51:20.820Z,11.11
2023-03-19T11:53:56.463Z,10.99
2023-03-19T11:56:35.746Z,11.00
2023-03-19T11:59:31.381Z,10.98
2023-03-19T12:02:40.545Z,10.99
2023-03-19T12:05:16.410Z,10.89
2023-03-19T12:07:47.728Z,10.86
2023-03-19T12:10:30.300Z,10.81
2023-03-19T12:13:09.488Z,10.57
2023-03-19T12:15:41.187Z,10.51
2023-03-19T12:18:17.624Z,10.49
2023-03-19T12:20:56.424Z,10.45
2023-03-19T12:23:41.145Z,10.39
2023-03-19T12:26:09.785Z,10.42
2023-03-19T12:28:42.955Z,10.36
2023-03-19T12:31:25.555Z,10.33
2023-03-19T12:34:00.663Z,10.20
2023-03-19T12:36:30.864Z,10.14
2023-03-19T12:39:01.128Z,9.99
2023-03-19T12:41:29.757Z,9.97
2023-03-19T12:44:03.175Z,10.04
2023-03-19T12:46:33.905Z,10.05
2023-03-19T12:49:04.712Z,9.99
2023-03-19T12:51:34.939Z,9.98
2023-03-19T12:54:05.127Z,9.99
2023-03-19T12:56:36.944Z,10.04
2023-03-19T12:59:11.176Z,10.14
2023-03-19T13:01:43.041Z,10.22
2023-03-19T13:04:13.607Z,10.32
2023-03-19T13:06:45.793Z,10.32
2023-03-19T13:09:17.249Z,10.38
2023-03-19T13:11:48.019Z,10.52
2023-03-19T13:14:22.793Z,10.67
2023-03-19T13:16:56.576Z,10.80
2023-03-19T13:19:29.682Z,10.89
2023-03-19T13:22:00.850Z,10.98
2023-03-19T13:24:30.309Z,10.88
2023-03-19T13:27:01.079Z,11.07
2023-03-19T13:29:32.233Z,11.08
2023-03-19T13:32:05.105Z,11.14
2023-03-19T13:34:34.613Z,11.31
2023-03-19T13:37:07.069Z,11.29
2023-03-19T13:39:35.659Z,11.33
2023-03-19T13:42:37.377Z,11.31
2023-03-19T13:45:28.681Z,11.45
2023-03-19T13:47:58.609Z,11.69
2023-03-19T13:50:31.485Z,11.80
2023-03-19T13:53:50.039Z,11.94
2023-03-19T13:56:29.657Z,11.85
2023-03-19T13:59:22.357Z,11.76
2023-03-19T14:01:51.752Z,11.67
2023-03-19T14:04:22.020Z,11.90
2023-03-19T14:06:51.486Z,11.98
2023-03-19T14:09:39.026Z,12.12
2023-03-19T14:12:11.847Z,12.38
2023-03-19T14:14:44.713Z,12.69
2023-03-19T14:17:16.619Z,12.87
2023-03-19T14:19:44.779Z,12.47
2023-03-19T14:22:21.454Z,11.99
2023-03-19T14:24:58.156Z,12.07
2023-03-19T14:27:30.657Z,11.85
2023-03-19T14:30:00.843Z,11.72
2023-03-19T14:32:34.429Z,11.67
2023-03-19T14:35:05.797Z,11.51
2023-03-19T14:37:43.036Z,11.26
2023-03-19T14:40:13.411Z,11.61
2023-03-19T14:42:47.993Z,11.93
2023-03-19T14:45:33.719Z,12.71
2023-03-19T14:48:48.813Z,13.01
2023-03-19T14:51:52.873Z,12.92
2023-03-19T14:54:34.859Z,12.82
2023-03-19T14:57:07.641Z,13.14
2023-03-19T14:59:39.661Z,12.91
2023-03-19T15:02:20.990Z,12.63
2023-03-19T15:04:49.534Z,12.61
2023-03-19T15:07:21.660Z,13.08
2023-03-19T15:09:53.473Z,13.00
2023-03-19T15:12:49.739Z,13.40
2023-03-19T15:15:26.004Z,13.64
2023-03-19T15:18:03.717Z,13.12
2023-03-19T15:20:38.304Z,12.67
2023-03-19T15:23:23.334Z,12.35
2023-03-19T15:25:56.981Z,12.33
2023-03-19T15:28:25.574Z,12.25
2023-03-19T15:31:06.362Z,12.41
2023-03-19T15:33:45.609Z,12.69
2023-03-19T15:36:17.655Z,12.31
2023-03-19T15:38:49.517Z,12.07
2023-03-19T15:41:18.659Z,11.98
2023-03-19T15:43:46.849Z,11.84
2023-03-19T15:46:17.166Z,11.78
2023-03-19T15:48:46.801Z,11.78
2023-03-19T15:51:15.982Z,11.87
2023-03-19T15:53:44.107Z,12.16
2023-03-19T15:56:14.784Z,12.86
2023-03-19T15:58:45.106Z,13.12
2023-03-19T16:01:13.230Z,12.91
2023-03-19T16:03:43.366Z,12.52
2023-03-19T16:06:17.881Z,12.28
2023-03-19T16:08:49.490Z,12.09
2023-03-19T16:11:28.771Z,11.86
2023-03-19T16:13:59.091Z,11.70
2023-03-19T16:16:29.958Z,11.68
2023-03-19T16:18:58.552Z,11.62
2023-03-19T16:21:30.535Z,11.66
2023-03-19T16:24:00.916Z,11.42
2023-03-19T16:26:32.594Z,11.60
2023-03-19T16:29:04.844Z,11.52
2023-03-19T16:31:34.029Z,11.47
2023-03-19T16:34:02.034Z,11.46
2023-03-19T16:36:32.372Z,11.47
2023-03-19T16:39:15.425Z,11.37
2023-03-19T16:41:45.997Z,11.35
2023-03-19T16:44:17.264Z,11.32
2023-03-19T16:46:45.195Z,11.32
2023-03-19T16:49:13.008Z,11.30
2023-03-19T16:51:41.093Z,11.28
2023-03-19T16:54:10.985Z,11.32
2023-03-19T16:56:38.928Z,12.00
2023-03-19T16:59:09.888Z,12.21
2023-03-19T17:01:37.758Z,12.16
2023-03-19T17:04:11.298Z,12.00
2023-03-19T17:06:39.157Z,11.83
2023-03-19T17:09:07.193Z,11.70
2023-03-19T17:11:38.041Z,11.56
2023-03-19T17:14:08.047Z,11.54
2023-03-19T17:16:36.087Z,11.50
2023-03-19T17:19:18.394Z,11.36
2023-03-19T17:21:46.987Z,11.30
2023-03-19T17:24:23.593Z,11.24
2023-03-19T17:26:52.008Z,11.18
2023-03-19T17:29:23.204Z,11.10
2023-03-19T17:31:51.651Z,11.04
2023-03-19T17:34:21.363Z,10.95
2023-03-19T17:36:52.895Z,10.81
2023-03-19T17:39:21.722Z,10.71
2023-03-19T17:41:49.597Z,10.71
2023-03-19T17:44:17.529Z,10.57
2023-03-19T17:46:49.802Z,10.51
2023-03-19T17:49:22.009Z,10.52
2023-03-19T17:51:50.119Z,10.48
2023-03-19T17:54:18.311Z,10.49
2023-03-19T17:56:46.218Z,10.49
2023-03-19T17:59:14.288Z,10.47
2023-03-19T18:01:44.033Z,10.46
2023-03-19T18:04:15.065Z,10.44
2023-03-19T18:06:44.562Z,10.43
2023-03-19T18:09:19.739Z,10.47
2023-03-19T18:11:47.566Z,10.44
2023-03-19T18:14:15.568Z,10.45
2023-03-19T18:16:43.786Z,10.49
2023-03-19T18:19:19.483Z,10.48
2023-03-19T18:21:47.324Z,10.44
2023-03-19T18:24:15.409Z,10.49
2023-03-19T18:26:43.351Z,10.46
2023-03-19T18:29:11.276Z,10.46
2023-03-19T18:31:41.876Z,10.37
2023-03-19T18:34:11.789Z,10.39
2023-03-19T18:36:41.602Z,10.38
2023-03-19T18:39:12.394Z,10.33
2023-03-19T18:41:40.454Z,10.29
2023-03-19T18:44:09.126Z,10.20
2023-03-19T18:46:38.274Z,10.15
2023-03-19T18:49:08.510Z,10.01
2023-03-19T18:51:36.398Z,10.05
2023-03-19T18:54:05.739Z,9.97
2023-03-19T18:56:34.556Z,9.97
2023-03-19T18:59:04.728Z,9.93
2023-03-19T19:01:32.876Z,9.90
2023-03-19T19:04:01.491Z,9.83
2023-03-19T19:06:46.460Z,9.81
2023-03-19T19:09:16.382Z,9.74
2023-03-19T19:11:47.549Z,9.76
2023-03-19T19:14:19.970Z,9.73
2023-03-19T19:16:47.992Z,9.68
2023-03-19T19:19:17.612Z,9.63
2023-03-19T19:21:45.486Z,9.54
2023-03-19T19:24:14.977Z,9.63
2023-03-19T19:26:45.461Z,9.61
2023-03-19T19:29:18.776Z,9.56
2023-03-19T19:31:46.812Z,9.61
2023-03-19T19:34:16.760Z,9.61
2023-03-19T19:36:44.693Z,9.63
2023-03-19T19:39:13.168Z,9.52
2023-03-19T19:41:43.654Z,9.61
2023-03-19T19:44:18.224Z,9.60
2023-03-19T19:46:46.235Z,9.62
2023-03-19T19:49:14.501Z,9.63
2023-03-19T19:51:42.462Z,9.67
2023-03-19T19:54:10.435Z,9.66
2023-03-19T19:56:39.162Z,9.64
2023-03-19T19:59:08.211Z,9.56
2023-03-19T20:01:37.429Z,9.57
2023-03-19T20:04:06.143Z,9.62
2023-03-19T20:06:33.986Z,9.62
2023-03-19T20:09:01.859Z,9.65
2023-03-19T20:11:32.344Z,9.61
2023-03-19T20:14:00.423Z,9.62
2023-03-19T20:16:28.331Z,9.55
2023-03-19T20:18:57.550Z,9.47
2023-03-19T20:21:25.647Z,9.39
2023-03-19T20:23:55.522Z,9.37
2023-03-19T20:26:24.765Z,9.31
2023-03-19T20:28:52.888Z,9.30
2023-03-19T20:31:29.469Z,9.30
2023-03-19T20:33:58.780Z,9.27
2023-03-19T20:36:26.721Z,9.25
2023-03-19T20:38:54.651Z,9.21
2023-03-19T20:41:24.117Z,9.07
2023-03-19T20:43:52.527Z,9.23
2023-03-19T20:46:21.320Z,9.22
2023-03-19T20:48:49.345Z,9.27
2023-03-19T20:51:21.563Z,9.37
2023-03-19T20:53:51.327Z,9.37
2023-03-19T20:56:21.919Z,9.41
2023-03-19T20:58:49.813Z,9.44
2023-03-19T21:01:18.559Z,9.48
2023-03-19T21:03:46.607Z,9.52
2023-03-19T21:06:17.700Z,9.54
2023-03-19T21:08:48.642Z,9.48
2023-03-19T21:11:18.916Z,9.52
2023-03-19T21:13:47.995Z,9.51
2023-03-19T21:16:19.717Z,9.49
2023-03-19T21:18:47.935Z,9.50
2023-03-19T21:21:16.664Z,9.49
2023-03-19T21:23:51.385Z,9.49
2023-03-19T21:26:22.257Z,9.49
2023-03-19T21:28:51.691Z,9.47
2023-03-19T21:31:21.525Z,9.44
2023-03-19T21:33:50.551Z,9.44
2023-03-19T21:36:18.951Z,9.46
2023-03-19T21:38:47.615Z,9.49
2023-03-19T21:41:21.847Z,9.50
2023-03-19T21:43:52.483Z,9.51
2023-03-19T21:46:24.603Z,9.45
2023-03-19T21:48:53.445Z,9.50
2023-03-19T21:51:21.419Z,9.50
2023-03-19T21:53:49.548Z,9.48
2023-03-19T21:56:22.761Z,9.43
2023-03-19T21:58:52.099Z,9.36
2023-03-19T22:01:21.819Z,9.38
2023-03-19T22:03:49.810Z,9.36
2023-03-19T22:06:18.020Z,9.32
2023-03-19T22:08:48.074Z,9.33
2023-03-19T22:11:18.374Z,9.30
2023-03-19T22:13:47.686Z,9.24
2023-03-19T22:16:19.848Z,9.23
2023-03-19T22:18:47.920Z,9.23
2023-03-19T22:21:16.615Z,9.25
2023-03-19T22:23:44.506Z,9.25
2023-03-19T22:26:27.147Z,9.17
2023-03-19T22:28:57.181Z,9.21
2023-03-19T22:31:25.501Z,9.19
2023-03-19T22:33:53.631Z,9.13
2023-03-19T22:36:21.446Z,9.11
2023-03-19T22:38:49.461Z,9.08
2023-03-19T22:41:19.178Z,9.07
2023-03-19T22:43:47.337Z,9.07
2023-03-19T22:46:19.793Z,9.07
2023-03-19T22:48:50.065Z,9.10
2023-03-19T22:51:19.795Z,9.10
2023-03-19T22:53:47.651Z,9.09
2023-03-19T22:56:16.175Z,9.07
2023-03-19T22:58:44.546Z,9.05
2023-03-19T23:01:29.963Z,8.95
2023-03-19T23:03:58.087Z,8.90
2023-03-19T23:06:30.538Z,8.83
2023-03-19T23:08:59.033Z,8.77
2023-03-19T23:11:27.076Z,8.75
2023-03-19T23:13:56.715Z,8.73
2023-03-19T23:16:26.544Z,8.55
2023-03-19T23:21:23.475Z,8.71
2023-03-19T23:23:52.304Z,8.50
2023-03-19T23:26:26.383Z,8.61
2023-03-19T23:28:54.355Z,8.62
2023-03-19T23:31:22.214Z,8.60
2023-03-19T23:33:51.380Z,8.55
2023-03-19T23:36:19.260Z,8.50
2023-03-19T23:38:47.706Z,8.48
2023-03-19T23:41:21.799Z,8.44
2023-03-19T23:43:49.720Z,8.40
2023-03-19T23:46:17.690Z,8.36
2023-03-19T23:48:45.685Z,8.37
2023-03-19T23:51:15.848Z,8.35
2023-03-19T23:53:44.177Z,8.34
2023-03-19T23:56:18.129Z,8.36
2023-03-19T23:58:45.952Z,8.37
